Tiempo atmosférico en la estación meteorológica de Daroca, Zaragoza (779 m.)



Fecha
DESCASC
Temp. máxima en grados centígrados (hora)
DESCASC
Temp. mínima en grados centígrados (hora)
DESCASC
Temp. media en grados centígrados
DESCASC
Racha de viento máxima en m/sg (hora)
DESCASC
Velocidad máxima media en intervalos de 10 minutos(hora)
DESCASC
Precipitaciones diarias en mm
DESCASC
Precipitaciones de 00:00 a 06:00 en mm
DESCASC
Precipitaciones de 06:00 a 12:00 en mm
DESCASC
Precipitaciones de 12:00 a 18:00 en mm
DESCASC
Precipitaciones de 18:00 a 24:00 en mm
DESCASC
13-10-2019 -- (--) -- (--) -- 9.72 (17:10) 4.72 (16:40) -- -- -- -- 0
12-10-2019 -- (--) -- (--) -- 6.11 (18:30) 2.22 (17:20) -- -- -- -- 0
10-10-2019 -- (--) -- (--) -- 6.11 (18:50) 3.33 (18:50) -- -- 0 -- 0
09-10-2019 -- (--) -- (--) -- 9.44 (16:20) 3.89 (16:10) -- -- -- -- 0
08-10-2019 -- (--) -- (--) -- 4.72 (16:00) 2.22 (16:00) -- -- -- -- 0
07-10-2019 -- (--) -- (--) -- 8.61 (17:40) 4.17 (16:40) -- 0 -- -- 0
06-10-2019 24.7 (17:10) 7.4 (00:00) 16.1 7.5 (19:00) 3.89 (19:00) 0 0 0 0 0
05-10-2019 28 (16:50) 8.3 (08:40) 18.2 5.56 (19:40) 2.5 (14:20) 0 0 0 0 0
04-10-2019 27.8 (17:30) 6.2 (00:00) 17 7.5 (14:50) 2.78 (13:10) 0 0 0 0 0
03-10-2019 26 (17:00) 5.4 (00:00) 15.7 7.22 (17:30) 3.61 (17:30) 0 0 0 0 0
02-10-2019 20.8 (17:00) 11.6 (00:00) 16.2 10.28 (12:30) 4.17 (17:50) 0 0 0 0 0
01-10-2019 26.8 (17:00) 9.2 (00:00) 18 9.17 (14:40) 4.17 (17:50) 0 0 0 0 0
30-09-2019 32 (16:50) 8.1 (00:00) 20.1 8.89 (17:20) 3.33 (17:20) 0 0 0 0 0
29-09-2019 30.6 (17:00) 10.5 (00:00) 20.6 8.06 (13:50) 3.61 (13:50) 0 0 0 0 0
28-09-2019 30.4 (16:20) 8 (00:00) 19.2 9.17 (16:50) 3.61 (17:00) 0 0 0 0 0
27-09-2019 29 (16:40) 9.8 (00:00) 19.4 7.22 (12:10) 3.06 (13:00) 0 0 0 0 0
26-09-2019 29.2 (17:30) 8.5 (00:00) 18.9 6.11 (15:20) 2.78 (15:30) 0 0 0 0 0
25-09-2019 22.6 (17:10) 13.6 (00:00) 18.1 8.89 (14:40) 4.17 (14:10) 0 0 0 0 0
24-09-2019 28.1 (17:00) 12.9 (00:00) 20.5 9.44 (17:10) 4.72 (17:10) 0 0 0 0 0
23-09-2019 24.4 (15:40) 7.2 (00:00) 15.8 6.11 (15:50) 2.78 (15:50) 0 0 0 0 0
22-09-2019 21.7 (18:10) 14.5 (00:00) 18.1 9.72 (10:40) 5 (10:40) 0 0 0 0 0
21-09-2019 25.2 (16:20) 16.1 (00:00) 20.7 9.72 (16:40) 4.44 (16:10) 0 0 0 0 0
20-09-2019 27.5 (16:40) 13.6 (00:00) 20.6 9.17 (18:20) 2.78 (17:00) 0 0 0 0 0
19-09-2019 27.5 (15:00) 11.2 (00:00) 19.3 6.67 (17:10) 2.78 (15:50) 0.4 0 0 0 0.4
18-09-2019 26.5 (18:40) 11.1 (00:00) 18.8 5.83 (16:30) 2.78 (14:00) 0.6 0.6 0 0 0
17-09-2019 30.2 (17:00) 12 (00:00) 21.1 13.89 (22:00) 6.67 (21:50) 0.6 0 0 0 0.6
16-09-2019 24.9 (14:20) 15.1 (00:00) 20 8.61 (15:00) 3.61 (16:30) 0.4 0 0 0.4 0

Gráficas

Temp. máximas Temp. mínimas Temp. medias Precipitaciones Rachas de viento máximas Velocidades máximas media en intervalos de 10 minutos

Datos horarios

Fecha y hora oficial Temperatura (ºC) Velocidad del viento (km/h) Dirección del viento Racha (km/h) Dirección de racha Precipitación (mm) Presión (hPa) Tendencia (hPa) Humedad (%)
2019-10-15 23:00:00 7.1 0 Calma 7 Nordeste 0 -- -- 73
2019-10-15 22:00:00 8.6 0 Calma 8 Este 0 -- -- 67
2019-10-15 21:00:00 9.9 3 Este 6 Este -- -- -- 62
2019-10-15 20:00:00 11.9 3 Nordeste 11 Sudoeste 0 -- -- 54
2019-10-15 19:00:00 14.4 5 Oeste 20 Oeste 0 -- -- 45
2019-10-15 18:00:00 15.7 9 Oeste 30 Sudoeste 0 -- -- 41
2019-10-15 17:00:00 16 10 Oeste 29 Oeste -- -- -- 40
2019-10-15 16:00:00 15.4 12 Oeste 32 Sudoeste 0 -- -- 41
2019-10-15 15:00:00 14.2 14 Oeste 29 Sudoeste 0 -- -- 44
2019-10-15 14:00:00 12.8 8 Oeste 29 Sudoeste -- -- -- 49
2019-10-15 13:00:00 11.5 12 Oeste 31 Sudoeste -- -- -- 55
2019-10-15 12:00:00 9.7 11 Sudoeste 33 Sudoeste -- -- -- 64
2019-10-15 11:00:00 8.9 10 Oeste 33 Oeste 0 -- -- 65
2019-10-15 10:00:00 8 9 Oeste 33 Oeste -- -- -- 67
2019-10-15 09:00:00 7.4 8 Oeste 23 Sudoeste -- -- -- 70
2019-10-15 08:00:00 7.6 8 Noroeste 26 Oeste 0 -- -- 69
2019-10-15 07:00:00 8.2 17 Sudoeste 41 Sudoeste 0 -- -- 68
2019-10-15 06:00:00 8.4 5 Sudoeste 13 Sudoeste 0 -- -- 67
2019-10-15 05:00:00 8.3 6 Oeste 13 Oeste -- -- -- 67
2019-10-15 04:00:00 8.4 2 Sur 21 Sudoeste 0 -- -- 72
2019-10-15 03:00:00 9.4 9 Oeste 18 Sudoeste 0 -- -- 70
2019-10-15 02:00:00 9.7 5 Sudoeste 22 Oeste 0 -- -- 71
2019-10-15 01:00:00 10.3 8 Sudoeste 21 Sudoeste 0 -- -- 70
2019-10-15 00:00:00 10.6 5 Oeste 14 Oeste 0 -- -- 73
2019-10-14 23:00:00 10.1 2 Nordeste 22 Norte 0 -- -- 78
2019-10-14 22:00:00 10.2 7 Norte 39 Oeste 0 -- -- 74
2019-10-14 21:00:00 13.7 14 Oeste 33 Noroeste -- -- -- 58
2019-10-14 20:00:00 17.1 15 Sudoeste 35 Sudoeste 0 -- -- 46
2019-10-14 19:00:00 18.2 16 Oeste 35 Sudoeste 0 -- -- 51
2019-10-14 18:00:00 18.9 20 Oeste 40 Sudoeste 0 -- -- 55
2019-10-14 17:00:00 17.9 21 Oeste 54 Oeste -- -- -- 63
2019-10-14 16:00:00 20.9 13 Oeste 39 Oeste 0.2 -- -- 50
2019-10-14 15:00:00 20 20 Oeste 39 Sudoeste -- -- -- 58
2019-10-14 14:00:00 21.2 6 Oeste 32 Sudoeste 0 -- -- 54
2019-10-14 13:00:00 17.8 8 Noroeste 22 Noroeste -- -- -- 67
2019-10-14 12:00:00 15.3 8 Oeste 40 Oeste -- -- -- 75
2019-10-14 11:00:00 17.2 15 Oeste 40 Oeste -- -- -- 64
2019-10-14 10:00:00 18.7 8 Oeste 28 Sudoeste -- -- -- 60
2019-10-14 09:00:00 18.7 9 Oeste 21 Oeste -- -- -- 55
2019-10-14 08:00:00 17.8 4 Norte 18 Sudoeste 0 -- -- 64
2019-10-14 07:00:00 17.4 5 Nordeste 15 Nordeste 0 -- -- 70
2019-10-14 06:00:00 17.7 4 Nordeste 14 Sudeste 0 -- -- 65
2019-10-14 05:00:00 17.7 5 Sudeste 18 Sur -- -- -- 67
2019-10-14 04:00:00 17.8 6 Nordeste 20 Sudeste 0 -- -- 70
2019-10-14 03:00:00 18 7 Nordeste 19 Sur 0 -- -- 71
2019-10-14 02:00:00 18.2 5 Nordeste 23 Sudeste 0 -- -- 70
2019-10-14 01:00:00 18.3 4 Nordeste 17 Sudoeste -- -- -- 67
2019-10-14 00:00:00 17.4 4 Nordeste 17 Sur 0 -- -- 58
2019-10-13 23:00:00 16.2 3 Norte 8 Este 0 -- -- 47
2019-10-13 22:00:00 16.5 3 Este 7 Este 0 -- -- 39
2019-10-13 21:00:00 18.3 4 Este 10 Noroeste 0 -- -- 36
2019-10-13 20:00:00 23.2 6 Oeste 16 Sudoeste 0 -- -- 28
2019-10-13 19:00:00 25.3 11 Oeste 23 Sudoeste 0 -- -- 25
2019-10-13 18:00:00 26.8 11 Oeste 35 Sudoeste 0 -- -- 24
2019-10-13 17:00:00 27.3 13 Oeste 32 Oeste -- -- -- 22
2019-10-13 16:00:00 27.2 15 Oeste 35 Sudoeste 0 -- -- 24
2019-10-13 15:00:00 25.8 5 Sur 32 Sudoeste -- -- -- 36
2019-10-13 14:00:00 25.6 13 Oeste 33 Sudoeste -- -- -- 34
2019-10-13 13:00:00 24.6 10 Oeste 21 Oeste -- -- -- 42
2019-10-13 12:00:00 22.8 6 Oeste 17 Sudeste 0 -- -- 50
2019-10-13 11:00:00 20.3 8 Sudeste 23 Sur -- -- -- 60
2019-10-13 10:00:00 17.4 8 Oeste 15 Oeste -- -- -- 72
2019-10-13 09:00:00 15.4 5 Oeste 10 Oeste -- -- -- 79
2019-10-13 08:00:00 15.1 5 Sur 16 Sudeste 0 -- -- 80
2019-10-13 07:00:00 14.8 6 Sudeste 17 Sur 0 -- -- 82
2019-10-13 06:00:00 14.9 3 Norte 17 Sudeste 0 -- -- 79
2019-10-13 05:00:00 14.5 5 Nordeste 15 Este -- -- -- 83
2019-10-13 04:00:00 15.2 2 Nordeste 10 Sur 0 -- -- 71
2019-10-13 03:00:00 16.3 0 Calma 9 Oeste 0 -- -- 65
2019-10-13 02:00:00 17.2 2 Sudoeste 9 Nordeste 0 -- -- 70
2019-10-13 01:00:00 18.6 4 Sur 19 Oeste -- -- -- 68
2019-10-13 00:00:00 19.4 5 Sur 17 Sudeste 0 -- -- 70
2019-10-12 23:00:00 20.1 3 Oeste 13 Sudoeste 0 -- -- 65
2019-10-12 22:00:00 20.8 3 Norte 19 Sur 0 -- -- 59
2019-10-12 21:00:00 22.4 4 Sur 13 Sudeste -- -- -- 49
2019-10-12 20:00:00 23.7 3 Nordeste 15 Sudoeste 0 -- -- 38
2019-10-12 19:00:00 25.1 6 Sudoeste 22 Oeste 0 -- -- 33
2019-10-12 18:00:00 26.5 3 Noroeste 19 Sur 0 -- -- 30
2019-10-12 17:00:00 28.1 7 Sudeste 19 Sudeste -- -- -- 26
2019-10-12 16:00:00 26.8 4 Este 19 Sudeste 0 -- -- 28
2019-10-12 15:00:00 27.1 8 Oeste 18 Sur 0 -- -- 32
2019-10-12 14:00:00 25.8 4 Noroeste 13 Sudeste -- -- -- 35
2019-10-12 13:00:00 23.7 3 Sudoeste 17 Sudeste -- -- -- 38
2019-10-12 12:00:00 21.6 4 Sudeste 14 Sudeste -- -- -- 46
2019-10-12 11:00:00 19.9 4 Este 14 Sudeste -- -- -- 54
2019-10-12 10:00:00 18.2 3 Sudeste 14 Oeste -- -- -- 63
2019-10-12 09:00:00 17.9 4 Sudoeste 15 Sur -- -- -- 66
2019-10-12 08:00:00 17.2 3 Norte 10 Oeste 0 -- -- 71
2019-10-12 07:00:00 17.5 3 Norte 11 Sudeste 0 -- -- 72
2019-10-12 06:00:00 18 4 Sudoeste 17 Sudeste 0 -- -- 70
2019-10-12 05:00:00 18.5 3 Norte 19 Sur -- -- -- 69
2019-10-12 04:00:00 18.6 6 Sudoeste 21 Sudeste 0 -- -- 70
2019-10-12 03:00:00 18.8 3 Noroeste 15 Sudeste 0 -- -- 70
2019-10-12 02:00:00 19.1 3 Noroeste 17 Sudoeste 0 -- -- 69
2019-10-12 01:00:00 19.5 4 Noroeste 12 Sur -- -- -- 68
2019-10-12 00:00:00 20.4 4 Oeste 18 Sudoeste 0 -- -- 63
2019-10-11 23:00:00 21.1 4 Noroeste 18 Oeste 0 -- -- 59
2019-10-11 22:00:00 22.2 4 Sudeste 14 Sudeste 0 -- -- 52
2019-10-11 21:00:00 22.8 3 Sudeste 13 Noroeste -- -- -- 45
2019-10-11 20:00:00 23.7 4 Nordeste 13 Este 0 -- -- 43
2019-10-11 19:00:00 25.9 6 Nordeste 20 Nordeste 0 -- -- 38
2019-10-11 18:00:00 25.5 6 Nordeste 23 Norte 0 -- -- 44
2019-10-11 17:00:00 26.9 13 Norte 33 Nordeste -- -- -- 40
2019-10-11 16:00:00 28.6 6 Sudeste 15 Sudeste 0 -- -- 35
2019-10-11 15:00:00 28.9 5 Este 15 Sudeste -- -- -- 36
2019-10-11 14:00:00 27.9 2 Norte 13 Sudeste 0 -- -- 40
2019-10-11 13:00:00 24.6 3 Nordeste 13 Sudeste -- -- -- 49
2019-10-11 12:00:00 21.9 4 Este 12 Este -- -- -- 58
2019-10-11 11:00:00 19.1 3 Norte 12 Sur -- -- -- 69
2019-10-11 10:00:00 16.4 5 Sudeste 12 Sur -- -- -- 80
2019-10-11 09:00:00 13.4 3 Nordeste 9 Nordeste 0 -- -- 90
2019-10-11 08:00:00 12.3 2 Nordeste 9 Norte 0 -- -- 88
2019-10-11 07:00:00 11.4 3 Nordeste 7 Nordeste 0 -- -- 90
2019-10-11 06:00:00 11.3 4 Nordeste 10 Nordeste 0 -- -- 88
2019-10-11 05:00:00 10.7 3 Este 9 Nordeste -- -- -- 86
2019-10-11 04:00:00 10.4 3 Este 5 Este 0 -- -- 82
2019-10-11 03:00:00 10.5 2 Este 5 Este 0 -- -- 78
2019-10-11 02:00:00 10.9 3 Este 5 Este 0 -- -- 72
2019-10-11 01:00:00 11.6 0 Calma 6 Nordeste -- -- -- 67
2019-10-11 00:00:00 12.6 3 Nordeste 7 Nordeste 0 -- -- 64
2019-10-10 23:00:00 14.4 2 Nordeste 7 Nordeste 0 -- -- 58
2019-10-10 22:00:00 15.4 4 Este 7 Nordeste 0 -- -- 56
2019-10-10 21:00:00 16.7 0 Calma 15 Este -- -- -- 52
2019-10-10 20:00:00 18.4 9 Nordeste 18 Norte 0 -- -- 48
2019-10-10 19:00:00 20.4 11 Nordeste 22 Nordeste 0 -- -- 43
2019-10-10 18:00:00 22.4 7 Nordeste 22 Nordeste 0 -- -- 41
2019-10-10 17:00:00 23.2 6 Nordeste 19 Nordeste -- -- -- 43
2019-10-10 16:00:00 22.8 7 Nordeste 18 Nordeste 0 -- -- 45
2019-10-10 15:00:00 21.4 4 Sudeste 14 Nordeste -- -- -- 46
2019-10-10 14:00:00 19 5 Este 15 Este 0 -- -- 48
2019-10-10 13:00:00 16.7 2 Nordeste 11 Norte -- -- -- 53
2019-10-10 12:00:00 15.1 4 Norte 11 Nordeste -- -- -- 56
2019-10-10 11:00:00 13.8 4 Nordeste 10 Este 0 -- -- 58
2019-10-10 10:00:00 12.9 4 Nordeste 13 Nordeste 0 -- -- 60
2019-10-10 09:00:00 12.2 4 Nordeste 9 Nordeste 0 -- -- 62
2019-10-10 08:00:00 12 0 Calma 4 Sur 0 -- -- 62
2019-10-10 07:00:00 12.1 0 Calma 13 Nordeste 0 -- -- 61
2019-10-10 06:00:00 12.3 5 Nordeste 11 Nordeste 0 -- -- 60
2019-10-10 05:00:00 12.2 3 Este 6 Este -- -- -- 62
2019-10-10 04:00:00 12 2 Este 9 Nordeste 0 -- -- 64
2019-10-10 03:00:00 11.9 0 Calma 4 Nordeste 0 -- -- 65
2019-10-10 02:00:00 11 0 Calma 4 Nordeste 0 -- -- 69
2019-10-10 01:00:00 11 0 Calma 6 Norte -- -- -- 69
2019-10-10 00:00:00 11.8 0 Calma 6 Norte 0 -- -- 65
2019-10-09 23:00:00 12.6 3 Nordeste 10 Nordeste 0 -- -- 63
2019-10-09 22:00:00 13.6 3 Sudeste 27 Norte 0 -- -- 62
2019-10-09 21:00:00 14.8 12 Nordeste 29 Norte -- -- -- 59
2019-10-09 20:00:00 16.3 9 Nordeste 23 Norte 0 -- -- 58
2019-10-09 19:00:00 18 13 Nordeste 30 Este 0 -- -- 57
2019-10-09 18:00:00 19.8 14 Nordeste 27 Norte 0 -- -- 53
2019-10-09 17:00:00 21 12 Nordeste 34 Nordeste 0 -- -- 51
2019-10-09 16:00:00 21.4 12 Nordeste 29 Este 0 -- -- 52
2019-10-09 15:00:00 21.9 12 Nordeste 25 Este -- -- -- 51
2019-10-09 14:00:00 21.2 8 Este 27 Nordeste -- -- -- 54
2019-10-09 13:00:00 20.6 10 Este 25 Nordeste -- -- -- 56
2019-10-09 12:00:00 19.8 10 Este 23 Nordeste 0 -- -- 59
2019-10-09 11:00:00 18.4 10 Nordeste 23 Nordeste -- -- -- 64
2019-10-09 10:00:00 14.1 0 Calma 6 Sudoeste -- -- -- 70
2019-10-09 09:00:00 11.4 0 Calma 6 Sur -- -- -- 73
2019-10-09 08:00:00 10.6 3 Nordeste 6 Nordeste 0 -- -- 76
2019-10-09 07:00:00 11.3 0 Calma 5 Nordeste 0 -- -- 72
2019-10-09 06:00:00 12 0 Calma 8 Sudoeste 0 -- -- 67
2019-10-09 05:00:00 11.4 0 Calma 6 Este -- -- -- 66
2019-10-09 04:00:00 11.8 0 Calma 6 Nordeste 0 -- -- 62
2019-10-09 03:00:00 12.7 2 Este 7 Este 0 -- -- 57
2019-10-09 02:00:00 13.4 0 Calma 4 Nordeste 0 -- -- 53
2019-10-09 01:00:00 14.1 0 Calma 8 Este -- -- -- 50
2019-10-09 00:00:00 15.4 0 Calma 7 Nordeste 0 -- -- 47
2019-10-08 23:00:00 16.3 0 Calma 6 Este 0 -- -- 45
2019-10-08 22:00:00 18.3 2 Nordeste 7 Nordeste 0 -- -- 40
2019-10-08 21:00:00 21 3 Este 8 Este -- -- -- 35
2019-10-08 20:00:00 24.5 4 Nordeste 13 Este 0 -- -- 30
2019-10-08 19:00:00 27.5 5 Nordeste 13 Noroeste 0 -- -- 29
2019-10-08 18:00:00 29.6 5 Noroeste 15 Este 0 -- -- 29
2019-10-08 17:00:00 29.8 6 Nordeste 14 Norte 0 -- -- 30
2019-10-08 16:00:00 29.2 8 Oeste 17 Sudoeste 0 -- -- 30
2019-10-08 15:00:00 28.5 5 Sudoeste -- -- -- -- -- 32
2019-10-08 14:00:00 26.3 3 Oeste 10 Sudoeste 0 -- -- 35
2019-10-08 13:00:00 24.8 3 Noroeste 11 Sudoeste -- -- -- 34
2019-10-08 12:00:00 22 0 Calma 9 Oeste -- -- -- 38
2019-10-08 11:00:00 18 0 Calma 5 Noroeste -- -- -- 48
2019-10-08 10:00:00 13.2 0 Calma 5 Oeste -- -- -- 58
2019-10-08 09:00:00 8.5 0 Calma 6 Nordeste -- -- -- 67
2019-10-08 08:00:00 8.6 2 Nordeste 5 Nordeste 0 -- -- 65
2019-10-08 07:00:00 8.9 3 Nordeste 6 Nordeste 0 -- -- 63
2019-10-08 06:00:00 9.7 3 Nordeste 6 Nordeste 0 -- -- 61
2019-10-08 05:00:00 10.3 3 Nordeste 9 Este -- -- -- 58
2019-10-08 04:00:00 11.1 3 Nordeste 12 Nordeste 0 -- -- 56
2019-10-08 03:00:00 11.4 2 Nordeste 7 Norte 0 -- -- 54
2019-10-08 02:00:00 12.5 3 Este 8 Nordeste 0 -- -- 52
2019-10-08 01:00:00 13.5 3 Este 8 Nordeste -- -- -- 49
2019-10-08 00:00:00 15.6 0 Calma 9 Sur 0 -- -- 47
2019-10-07 23:00:00 16.4 0 Calma 15 Nordeste 0 -- -- 42
2019-10-07 22:00:00 18.5 5 Sudeste 15 Norte 0 -- -- 38
2019-10-07 21:00:00 19.5 8 Norte 20 Nordeste -- -- -- 39
2019-10-07 20:00:00 21.6 7 Norte 22 Nordeste 0 -- -- 44
2019-10-07 19:00:00 23.5 9 Nordeste 30 Nordeste 0 -- -- 43
2019-10-07 18:00:00 25.7 10 Norte 31 Nordeste 0 -- -- 36
2019-10-07 17:00:00 26.1 13 Norte 30 Noroeste -- -- -- 33
2019-10-07 16:00:00 25.4 10 Norte 31 Oeste 0 -- -- 32
2019-10-07 15:00:00 23.5 12 Oeste 27 Noroeste -- -- -- 27
2019-10-07 14:00:00 22.6 9 Oeste 24 Oeste -- -- -- 27
2019-10-07 13:00:00 21.4 10 Oeste 30 Noroeste -- -- -- 29
2019-10-07 12:00:00 19.2 10 Oeste 22 Sudoeste -- -- -- 33
2019-10-07 11:00:00 16.3 7 Sudoeste 17 Oeste -- -- -- 50
2019-10-07 10:00:00 12.4 0 Calma 4 Sudeste 0 -- -- 77
2019-10-07 09:00:00 7.7 0 Calma 6 Nordeste 0 -- -- 87
2019-10-07 08:00:00 7.9 0 Calma 6 Nordeste 0 -- -- 86
2019-10-07 07:00:00 8.8 2 Nordeste 8 Nordeste 0 -- -- 85
2019-10-07 06:00:00 10.5 0 Calma 6 Nordeste 0 -- -- 83
2019-10-07 05:00:00 11.3 0 Calma 6 Sudoeste 0 -- -- 83
2019-10-07 04:00:00 10.4 0 Calma 9 Este 0 -- -- 84
2019-10-07 03:00:00 10.7 0 Calma 6 Nordeste 0 -- -- 83
2019-10-07 02:00:00 11 0 Calma 6 Este 0 -- -- 81
2019-10-07 01:00:00 12.2 0 Calma 4 Nordeste 0 -- -- 78
2019-10-07 00:00:00 13.1 0 Calma 5 Norte 0 -- -- 76
2019-10-06 23:00:00 14.5 0 Calma 9 Norte 0 -- -- 72
2019-10-06 22:00:00 15.2 2 Sudeste 12 Nordeste 0 -- -- 68
2019-10-06 21:00:00 16.3 6 Nordeste 20 Norte 0 -- -- 66
2019-10-06 20:00:00 17.8 8 Nordeste 25 Norte 0 -- -- 60
2019-10-06 19:00:00 20.5 14 Nordeste 27 Nordeste 0 -- -- 53
2019-10-06 18:00:00 24.3 5 Noroeste 18 Norte 0 -- -- 37
2019-10-06 17:00:00 24.5 5 Norte 20 Nordeste 0 -- -- 37
2019-10-06 16:00:00 23 6 Norte 22 Oeste 0 -- -- 40
2019-10-06 15:00:00 21.4 8 Oeste 22 Oeste 0 -- -- 45
2019-10-06 14:00:00 21.3 4 Noroeste 18 Norte 0 -- -- 46
2019-10-06 13:00:00 19.8 6 Oeste 15 Oeste 0 -- -- 49
2019-10-06 12:00:00 17.9 7 Sudoeste 13 Sudoeste 0 -- -- 55
2019-10-06 11:00:00 15.5 0 Calma 5 Oeste 0 -- -- 66
2019-10-06 10:00:00 12.5 3 Sudeste 6 Sur 0 -- -- 77
2019-10-06 09:00:00 7.9 0 Calma 6 Nordeste 0 -- -- 84
2019-10-06 08:00:00 7.5 0 Calma 5 Este 0 -- -- 83
2019-10-06 07:00:00 7.9 2 Este 6 Sudeste 0 -- -- 82
2019-10-06 06:00:00 8.4 2 Nordeste 5 Este 0 -- -- 79
2019-10-06 05:00:00 9.2 0 Calma 4 Nordeste 0 -- -- 77
2019-10-06 04:00:00 10.1 3 Este 6 Este 0 -- -- 74
2019-10-06 03:00:00 10.6 0 Calma 9 Este 0 -- -- 73
2019-10-06 02:00:00 11.4 0 Calma 6 Nordeste 0 -- -- 70
2019-10-06 01:00:00 12.5 2 Nordeste 7 Nordeste 0 -- -- 66
2019-10-06 00:00:00 13.8 3 Este 7 Nordeste 0 -- -- 63
2019-10-05 23:00:00 15.9 0 Calma 5 Norte 0 -- -- 59
2019-10-05 22:00:00 17.5 0 Calma 5 Sudeste 0 -- -- 55
2019-10-05 21:00:00 19.5 0 Calma 15 Nordeste 0 -- -- 51
2019-10-05 20:00:00 21.6 6 Nordeste 20 Nordeste 0 -- -- 48
2019-10-05 19:00:00 25.6 5 Nordeste 14 Oeste 0 -- -- 34
2019-10-05 18:00:00 27.6 3 Norte 19 Oeste 0 -- -- 24
2019-10-05 17:00:00 27.8 5 Oeste 19 Noroeste 0 -- -- 25
2019-10-05 16:00:00 27.1 6 Noroeste 18 Oeste 0 -- -- 24
2019-10-05 15:00:00 25.6 7 Oeste 19 Oeste 0 -- -- 33
2019-10-05 14:00:00 24.3 6 Oeste 18 Sudoeste 0 -- -- 40
2019-10-05 13:00:00 21.9 7 Oeste 18 Sudoeste 0 -- -- 49
2019-10-05 12:00:00 18.7 4 Sudoeste 8 Sudoeste 0 -- -- 60
2019-10-05 11:00:00 15.5 0 Calma 8 Sudoeste 0 -- -- 71
2019-10-05 10:00:00 12.7 0 Calma 4 Sudeste 0 -- -- 79
2019-10-05 09:00:00 8.5 0 Calma 5 Nordeste 0 -- -- 88
2019-10-05 08:00:00 9 2 Este 5 Nordeste 0 -- -- 85
2019-10-05 07:00:00 10 0 Calma 9 Este 0 -- -- 88
2019-10-05 06:00:00 10.6 3 Nordeste 8 Nordeste 0 -- -- 86
2019-10-05 05:00:00 12.3 0 Calma 7 Sur 0 -- -- 83
2019-10-05 04:00:00 12.8 3 Sudeste 12 Este 0 -- -- 83
2019-10-05 03:00:00 13.3 4 Nordeste 14 Este 0 -- -- 82
2019-10-05 02:00:00 13.7 7 Nordeste 17 Nordeste 0 -- -- 79
2019-10-05 01:00:00 14.1 2 Este 7 Este 0 -- -- 75
2019-10-05 00:00:00 15.1 3 Nordeste 5 Este 0 -- -- 71
2019-10-04 23:00:00 16 0 Calma 6 Este 0 -- -- 66
2019-10-04 22:00:00 17.7 3 Nordeste 8 Nordeste 0 -- -- 61
2019-10-04 21:00:00 19.4 6 Nordeste 18 Este 0 -- -- 57
2019-10-04 20:00:00 21.6 8 Nordeste 16 Nordeste 0 -- -- 50
2019-10-04 19:00:00 24.5 5 Norte 16 Norte 0 -- -- 39
2019-10-04 18:00:00 26.6 5 Nordeste 20 Nordeste 0 -- -- 36
2019-10-04 17:00:00 27.4 6 Nordeste 16 Nordeste 0 -- -- 31
2019-10-04 16:00:00 26.5 7 Oeste 23 Nordeste 0 -- -- 29
2019-10-04 15:00:00 26 6 Nordeste 27 Nordeste 0 -- -- 29
2019-10-04 14:00:00 24.8 4 Noroeste 22 Sudoeste 0 -- -- 30
2019-10-04 13:00:00 23.2 5 Oeste 14 Sudoeste 0 -- -- 35
2019-10-04 12:00:00 20 0 Calma 7 Oeste 0 -- -- 41
2019-10-04 11:00:00 16.1 4 Oeste 8 Oeste 0 -- -- 50
2019-10-04 10:00:00 11.2 0 Calma 5 Este 0 -- -- 64
2019-10-04 09:00:00 6.5 2 Nordeste 6 Nordeste 0 -- -- 79
2019-10-04 08:00:00 6.2 0 Calma 5 Nordeste 0 -- -- 78
2019-10-04 07:00:00 6.9 0 Calma 6 Este 0 -- -- 77
2019-10-04 06:00:00 7.6 0 Calma 5 Nordeste 0 -- -- 73
2019-10-04 05:00:00 7.9 2 Nordeste 8 Nordeste 0 -- -- 72
2019-10-04 04:00:00 8.6 0 Calma 5 Norte 0 -- -- 70
2019-10-04 03:00:00 9 3 Nordeste 9 Este 0 -- -- 68
2019-10-04 02:00:00 9.8 0 Calma 5 Sudeste 0 -- -- 67
2019-10-04 01:00:00 10.5 0 Calma 8 Nordeste 0 -- -- 63
2019-10-04 00:00:00 11.7 3 Nordeste 6 Norte 0 -- -- 59
2019-10-03 23:00:00 12.7 3 Nordeste 8 Nordeste 0 -- -- 57
2019-10-03 22:00:00 14.7 0 Calma 8 Nordeste 0 -- -- 53
2019-10-03 21:00:00 17.4 2 Este 6 Nordeste 0 -- -- 47
2019-10-03 20:00:00 20.1 5 Nordeste 17 Nordeste 0 -- -- 41
2019-10-03 19:00:00 23.1 10 Norte 23 Oeste 0 -- -- 34
2019-10-03 18:00:00 25.7 12 Oeste 26 Oeste 0 -- -- 24
2019-10-03 17:00:00 26 12 Oeste 26 Oeste 0 -- -- 21
2019-10-03 16:00:00 25.2 8 Noroeste 25 Oeste 0 -- -- 24
2019-10-03 15:00:00 23.7 9 Oeste 23 Sudoeste 0 -- -- 29
2019-10-03 14:00:00 21.3 8 Sudoeste 20 Oeste 0 -- -- 36
2019-10-03 13:00:00 19.4 8 Sudoeste 20 Sudoeste 0 -- -- 44
2019-10-03 12:00:00 16.7 8 Sudoeste 19 Oeste 0 -- -- 52
2019-10-03 11:00:00 12.9 5 Sudoeste 13 Sudoeste 0 -- -- 66
2019-10-03 10:00:00 8.7 3 Oeste 12 Oeste 0 -- -- 81
2019-10-03 09:00:00 5.6 0 Calma 5 Nordeste 0 -- -- 88
2019-10-03 08:00:00 5.8 0 Calma 5 Sudeste 0 -- -- 86
2019-10-03 07:00:00 6.6 2 Este 6 Nordeste 0 -- -- 86
2019-10-03 06:00:00 7.6 2 Nordeste 9 Nordeste 0 -- -- 84
2019-10-03 05:00:00 8 2 Nordeste 8 Norte 0 -- -- 84
2019-10-03 04:00:00 8.5 0 Calma 5 Norte 0 -- -- 83
2019-10-03 03:00:00 9.2 0 Calma 10 Sudeste 0 -- -- 81
2019-10-03 02:00:00 10 0 Calma 6 Sur 0 -- -- 77
2019-10-03 01:00:00 11.5 0 Calma 7 Nordeste 0 -- -- 75
2019-10-03 00:00:00 12.2 4 Nordeste 7 Nordeste 0 -- -- 73
2019-10-02 23:00:00 13.3 4 Norte 12 Norte 0 -- -- 69
2019-10-02 22:00:00 14.5 0 Calma 20 Noroeste 0 -- -- 61
2019-10-02 21:00:00 15.6 4 Nordeste 22 Nordeste 0 -- -- 57
2019-10-02 20:00:00 16.8 9 Nordeste 25 Nordeste 0 -- -- 51
2019-10-02 19:00:00 18.5 13 Norte 27 Nordeste 0 -- -- 45
2019-10-02 18:00:00 19.9 13 Nordeste 33 Nordeste 0 -- -- 43
2019-10-02 17:00:00 20.8 10 Norte 27 Norte 0 -- -- 39
2019-10-02 16:00:00 20.1 9 Norte 27 Norte 0 -- -- 41
2019-10-02 15:00:00 20.1 6 Noroeste 28 Noroeste 0 -- -- 41
2019-10-02 14:00:00 19.1 10 Noroeste 23 Norte 0 -- -- 43
2019-10-02 13:00:00 18.4 10 Noroeste 37 Norte 0 -- -- 46
2019-10-02 12:00:00 16.9 10 Oeste 30 Oeste 0 -- -- 48
2019-10-02 11:00:00 16 8 Oeste 25 Oeste 0 -- -- 56
2019-10-02 10:00:00 14.9 8 Oeste 23 Oeste 0 -- -- 62
2019-10-02 09:00:00 13.6 7 Sudoeste 15 Sudoeste 0 -- -- 65
2019-10-02 08:00:00 13.9 5 Oeste 18 Oeste 0 -- -- 63
2019-10-02 07:00:00 14.1 6 Oeste 15 Oeste 0 -- -- 63
2019-10-02 06:00:00 12.1 2 Norte 6 Este 0 -- -- 78
2019-10-02 05:00:00 11.6 3 Nordeste 10 Nordeste 0 -- -- 77
2019-10-02 04:00:00 12.6 4 Nordeste 9 Este 0 -- -- 67
2019-10-02 03:00:00 13 5 Nordeste 11 Nordeste 0 -- -- 69
2019-10-02 02:00:00 14 4 Nordeste 10 Este 0 -- -- 68
2019-10-02 01:00:00 14.3 4 Nordeste 12 Nordeste 0 -- -- 59
2019-10-02 00:00:00 14.9 3 Nordeste 10 Nordeste 0 -- -- 58
2019-10-01 23:00:00 16.1 2 Este 9 Este 0 -- -- 53
2019-10-01 22:00:00 18.9 2 Nordeste 13 Noroeste 0 -- -- 47
2019-10-01 21:00:00 21.4 3 Oeste 22 Sudoeste 0 -- -- 42
2019-10-01 20:00:00 22.5 9 Sudoeste 28 Oeste 0 -- -- 40
2019-10-01 19:00:00 24.3 12 Oeste 30 Sudoeste 0 -- -- 34
2019-10-01 18:00:00 25.7 14 Oeste 30 Oeste 0 -- -- 32
2019-10-01 17:00:00 26.8 11 Oeste 28 Noroeste 0 -- -- 32
2019-10-01 16:00:00 25.8 13 Oeste 33 Noroeste 0 -- -- 33
2019-10-01 15:00:00 26.3 9 Oeste 33 Oeste 0 -- -- 32
2019-10-01 14:00:00 25 10 Oeste 28 Oeste 0 -- -- 31
2019-10-01 13:00:00 24.9 6 Oeste 20 Oeste 0 -- -- 27
2019-10-01 12:00:00 23 8 Oeste 21 Oeste 0 -- -- 30
2019-10-01 11:00:00 20.4 3 Sudoeste 6 Sudoeste 0 -- -- 41
2019-10-01 10:00:00 15.9 0 Calma 4 Noroeste 0 -- -- 56
2019-10-01 09:00:00 10.1 0 Calma 6 Nordeste 0 -- -- 68
2019-10-01 08:00:00 9.3 2 Este 6 Nordeste 0 -- -- 68
2019-10-01 07:00:00 10.2 2 Este 7 Nordeste 0 -- -- 65
2019-10-01 06:00:00 10.4 2 Este 9 Sudeste 0 -- -- 64
2019-10-01 05:00:00 10.4 2 Este 6 Este 0 -- -- 62
2019-10-01 04:00:00 10.9 3 Este 6 Nordeste 0 -- -- 60
2019-10-01 03:00:00 12.1 2 Este 5 Nordeste 0 -- -- 58
2019-10-01 02:00:00 13.3 3 Nordeste 6 Nordeste 0 -- -- 54
2019-10-01 01:00:00 14.6 3 Nordeste 10 Nordeste 0 -- -- 52
2019-10-01 00:00:00 15.6 4 Este 10 Nordeste 0 -- -- 50
2019-09-30 23:00:00 17 4 Nordeste 8 Nordeste 0 -- -- 46
2019-09-30 22:00:00 19.3 3 Este 8 Este 0 -- -- 42
2019-09-30 21:00:00 21.9 2 Este 7 Norte 0 -- -- 37
2019-09-30 20:00:00 25.1 5 Norte 17 Este 0 -- -- 32
2019-09-30 19:00:00 27.7 7 Nordeste 21 Nordeste 0 -- -- 29
2019-09-30 18:00:00 29.8 9 Nordeste 32 Oeste 0 -- -- 24
2019-09-30 17:00:00 31.8 5 Norte 17 Sudoeste 0 -- -- 16
2019-09-30 16:00:00 31.1 5 Sudeste 16 Sudoeste 0 -- -- 19
2019-09-30 15:00:00 29.9 5 Este 12 Este 0 -- -- 23
2019-09-30 14:00:00 28.3 4 Nordeste 12 Norte 0 -- -- 27
2019-09-30 13:00:00 25.6 4 Oeste 10 Oeste 0 -- -- 31
2019-09-30 12:00:00 23 0 Calma 8 Oeste 0 -- -- 35
2019-09-30 11:00:00 19.1 3 Oeste 6 Oeste 0 -- -- 41
2019-09-30 10:00:00 14.2 0 Calma 4 Oeste 0 -- -- 53
2019-09-30 09:00:00 9 0 Calma 4 Este 0 -- -- 65
2019-09-30 08:00:00 8.1 0 Calma 6 Este 0 -- -- 64
2019-09-30 07:00:00 8.5 0 Calma 6 Este 0 -- -- 62
2019-09-30 06:00:00 8.8 0 Calma 6 Este 0 -- -- 61
2019-09-30 05:00:00 9.7 0 Calma 5 Nordeste 0 -- -- 58
2019-09-30 04:00:00 10.3 0 Calma 8 Nordeste 0 -- -- 55
2019-09-30 03:00:00 11.2 0 Calma 5 Nordeste 0 -- -- 53
2019-09-30 02:00:00 12.2 0 Calma 4 Este 0 -- -- 50
2019-09-30 01:00:00 13.6 3 Nordeste 6 Nordeste 0 -- -- 47
2019-09-30 00:00:00 14.9 0 Calma 5 Nordeste 0 -- -- 44
2019-09-29 23:00:00 16.3 2 Nordeste 8 Nordeste 0 -- -- 40
2019-09-29 22:00:00 18.1 3 Nordeste 10 Nordeste 0 -- -- 36
2019-09-29 21:00:00 20.6 5 Este 10 Nordeste 0 -- -- 32
2019-09-29 20:00:00 26 0 Calma 12 Oeste 0 -- -- 25
2019-09-29 19:00:00 28.8 8 Oeste 19 Sur 0 -- -- 21
2019-09-29 18:00:00 30.2 8 Oeste 23 Sudoeste 0 -- -- 21
2019-09-29 17:00:00 30.6 9 Sudoeste 22 Noroeste 0 -- -- 21
2019-09-29 16:00:00 29.9 8 Noroeste 28 Noroeste 0 -- -- 24
2019-09-29 15:00:00 28.7 9 Oeste 24 Oeste 0 -- -- 26
2019-09-29 14:00:00 27.6 13 Oeste 29 Oeste 0 -- -- 27
2019-09-29 13:00:00 27.2 9 Oeste 23 Oeste 0 -- -- 29
2019-09-29 12:00:00 23.7 4 Sudoeste 11 Este 0 -- -- 42
2019-09-29 11:00:00 19 3 Oeste 10 Oeste 0 -- -- 66
2019-09-29 10:00:00 16.1 2 Oeste 8 Sur 0 -- -- 79
2019-09-29 09:00:00 13.7 0 Calma 9 Sudoeste 0 -- -- 88
2019-09-29 08:00:00 10.5 3 Este 6 Sudeste 0 -- -- 84
2019-09-29 07:00:00 11.1 0 Calma 5 Sudeste 0 -- -- 82
2019-09-29 06:00:00 12.2 0 Calma 5 Sudeste 0 -- -- 81
2019-09-29 05:00:00 13.5 2 Nordeste 8 Nordeste 0 -- -- 81
2019-09-29 04:00:00 13.4 3 Este 12 Noroeste 0 -- -- 82
2019-09-29 03:00:00 11.4 3 Este 7 Sudeste 0 -- -- 77
2019-09-29 02:00:00 11.9 3 Nordeste 7 Nordeste 0 -- -- 75
2019-09-29 01:00:00 13.2 2 Este 5 Sudeste 0 -- -- 68
2019-09-29 00:00:00 14.6 0 Calma 9 Nordeste 0 -- -- 65
2019-09-28 23:00:00 16.4 2 Nordeste 7 Nordeste 0 -- -- 60
2019-09-28 22:00:00 18.9 3 Nordeste 9 Nordeste 0 -- -- 54
2019-09-28 21:00:00 21.5 3 Nordeste 12 Este 0 -- -- 48
2019-09-28 20:00:00 23.3 5 Nordeste 18 Este 0 -- -- 43
2019-09-28 19:00:00 25.7 9 Nordeste 26 Nordeste 0 -- -- 38
2019-09-28 18:00:00 27.4 11 Nordeste 24 Nordeste 0 -- -- 34
2019-09-28 17:00:00 29.1 13 Nordeste 33 Oeste 0 -- -- 29
2019-09-28 16:00:00 29.9 4 Norte 16 Este 0 -- -- 22
2019-09-28 15:00:00 28.6 4 Nordeste 19 Norte 0 -- -- 25
2019-09-28 14:00:00 26.6 4 Noroeste 12 Nordeste 0 -- -- 28
2019-09-28 13:00:00 24.7 3 Sur 9 Sudeste 0 -- -- 32
2019-09-28 12:00:00 21 2 Sudoeste 8 Oeste 0 -- -- 38
2019-09-28 11:00:00 16.8 4 Oeste 9 Oeste 0 -- -- 51
2019-09-28 10:00:00 13.1 0 Calma 5 Noroeste 0 -- -- 63
2019-09-28 09:00:00 8.7 0 Calma 4 Nordeste 0 -- -- 80
2019-09-28 08:00:00 8.2 3 Nordeste 8 Este 0 -- -- 80
2019-09-28 07:00:00 9.5 2 Nordeste 5 Sudeste 0 -- -- 75
2019-09-28 06:00:00 9 0 Calma 8 Nordeste 0 -- -- 77
2019-09-28 05:00:00 9.6 2 Este 6 Nordeste 0 -- -- 74
2019-09-28 04:00:00 10.3 2 Nordeste 6 Este 0 -- -- 70
2019-09-28 03:00:00 11.4 0 Calma 10 Este 0 -- -- 68
2019-09-28 02:00:00 12.1 0 Calma 9 Este 0 -- -- 65
2019-09-28 01:00:00 13.3 2 Este 8 Nordeste 0 -- -- 61
2019-09-28 00:00:00 14.8 0 Calma 8 Nordeste 0 -- -- 57
2019-09-27 23:00:00 16.8 0 Calma 6 Este 0 -- -- 52
2019-09-27 22:00:00 19.5 0 Calma 14 Nordeste 0 -- -- 45
2019-09-27 21:00:00 21.8 6 Norte 14 Nordeste 0 -- -- 41
2019-09-27 20:00:00 24.3 6 Nordeste 12 Nordeste 0 -- -- 35
2019-09-27 19:00:00 27.1 6 Noroeste 17 Noroeste 0 -- -- 29
2019-09-27 18:00:00 28 10 Oeste 23 Oeste 0 -- -- 28
2019-09-27 17:00:00 28.6 10 Oeste 21 Oeste 0 -- -- 28
2019-09-27 16:00:00 27.9 8 Oeste 22 Noroeste 0 -- -- 28
2019-09-27 15:00:00 26.8 11 Oeste 23 Nordeste 0 -- -- 29
2019-09-27 14:00:00 25.8 6 Oeste 21 Oeste 0 -- -- 29
2019-09-27 13:00:00 24.1 11 Oeste 26 Sudoeste 0 -- -- 29
2019-09-27 12:00:00 22.4 7 Oeste 18 Oeste 0 -- -- 35
2019-09-27 11:00:00 19.9 5 Sudoeste 8 Sudoeste 0 -- -- 43
2019-09-27 10:00:00 15.8 0 Calma 3 Este 0 -- -- 64
2019-09-27 09:00:00 10.6 0 Calma 4 Este 0 -- -- 77
2019-09-27 08:00:00 9.8 0 Calma 7 Este 0 -- -- 75
2019-09-27 07:00:00 10.5 0 Calma 4 Nordeste 0 -- -- 73
2019-09-27 06:00:00 11 0 Calma 6 Nordeste 0 -- -- 71
2019-09-27 05:00:00 11.8 0 Calma 4 Nordeste 0 -- -- 68
2019-09-27 04:00:00 12.5 0 Calma 6 Nordeste 0 -- -- 66
2019-09-27 03:00:00 13.2 0 Calma 6 Nordeste 0 -- -- 63
2019-09-27 02:00:00 14.2 0 Calma 7 Nordeste 0 -- -- 60
2019-09-27 01:00:00 15.3 0 Calma 6 Nordeste 0 -- -- 56
2019-09-27 00:00:00 16.7 0 Calma 8 Norte 0 -- -- 53
2019-09-26 23:00:00 18.1 5 Nordeste 8 Nordeste 0 -- -- 49
2019-09-26 22:00:00 19.1 3 Nordeste 10 Nordeste 0 -- -- 46
2019-09-26 21:00:00 21.6 4 Nordeste 8 Nordeste 0 -- -- 40
2019-09-26 20:00:00 25.8 4 Sudoeste 13 Oeste 0 -- -- 33
2019-09-26 19:00:00 27.9 3 Norte 18 Oeste 0 -- -- 31
2019-09-26 18:00:00 28.9 5 Noroeste 21 Sudoeste 0 -- -- 30
2019-09-26 17:00:00 29.1 8 Sudoeste 19 Oeste 0 -- -- 29
2019-09-26 16:00:00 28.8 7 Norte 22 Sudoeste 0 -- -- 30
2019-09-26 15:00:00 27.7 8 Oeste 22 Nordeste 0 -- -- 29
2019-09-26 14:00:00 26 5 Norte 16 Noroeste 0 -- -- 32
2019-09-26 13:00:00 24.3 4 Noroeste 12 Oeste 0 -- -- 36
2019-09-26 12:00:00 22 3 Norte 9 Noroeste 0 -- -- 42
2019-09-26 11:00:00 18.7 0 Calma 6 Noroeste 0 -- -- 52
2019-09-26 10:00:00 14.3 0 Calma 4 Este 0 -- -- 64
2019-09-26 09:00:00 10 0 Calma 4 Sudeste 0 -- -- 76
2019-09-26 08:00:00 8.5 0 Calma 5 Sudeste 0 -- -- 80
2019-09-26 07:00:00 8.8 0 Calma 6 Este 0 -- -- 77
2019-09-26 06:00:00 9.3 0 Calma 5 Nordeste 0 -- -- 75
2019-09-26 05:00:00 10 0 Calma 6 Nordeste 0 -- -- 73
2019-09-26 04:00:00 10.7 0 Calma 7 Nordeste 0 -- -- 70
2019-09-26 03:00:00 11.2 0 Calma 6 Nordeste 0 -- -- 69
2019-09-26 02:00:00 12 3 Nordeste 8 Este 0 -- -- 66
2019-09-26 01:00:00 12.9 0 Calma 5 Nordeste 0 -- -- 63
2019-09-26 00:00:00 13.6 0 Calma 7 Nordeste 0 -- -- 60
2019-09-25 23:00:00 14.8 2 Este 10 Nordeste 0 -- -- 55
2019-09-25 22:00:00 16.1 3 Nordeste 12 Nordeste 0 -- -- 51
2019-09-25 21:00:00 18.6 0 Calma 7 Oeste 0 -- -- 45
2019-09-25 20:00:00 20.2 2 Oeste 16 Sudoeste 0 -- -- 41
2019-09-25 19:00:00 21.2 8 Sudoeste 25 Sudoeste 0 -- -- 40
2019-09-25 18:00:00 22 10 Oeste 31 Sudoeste 0 -- -- 37
2019-09-25 17:00:00 22.4 10 Oeste 30 Sudoeste 0 -- -- 35
2019-09-25 16:00:00 21.8 12 Oeste 28 Oeste 0 -- -- 35
2019-09-25 15:00:00 21.1 10 Oeste 32 Sudoeste 0 -- -- 39
2019-09-25 14:00:00 20.3 11 Oeste 31 Oeste 0 -- -- 40
2019-09-25 13:00:00 19 13 Oeste 28 Oeste 0 -- -- 44
2019-09-25 12:00:00 18.5 10 Oeste 26 Oeste 0 -- -- 47
2019-09-25 11:00:00 18 5 Oeste 18 Oeste 0 -- -- 49
2019-09-25 10:00:00 16.3 4 Norte 17 Sudoeste 0 -- -- 58
2019-09-25 09:00:00 15.2 8 Oeste 19 Sudoeste 0 -- -- 64
2019-09-25 08:00:00 15.3 7 Oeste 20 Oeste 0 -- -- 66
2019-09-25 07:00:00 15.8 3 Norte 17 Oeste 0 -- -- 68
2019-09-25 06:00:00 16.7 3 Norte 12 Sudoeste 0 -- -- 68
2019-09-25 05:00:00 17.6 4 Oeste 21 Oeste 0 -- -- 67
2019-09-25 04:00:00 17.9 6 Sudoeste 22 Oeste 0 -- -- 67
2019-09-25 03:00:00 18.7 6 Sudoeste 13 Sudoeste 0 -- -- 67
2019-09-25 02:00:00 19.1 0 Calma 11 Noroeste 0 -- -- 66
2019-09-25 01:00:00 19.5 5 Sudoeste 16 Sudoeste 0 -- -- 65
2019-09-25 00:00:00 19.6 4 Oeste 10 Oeste 0 -- -- 66
2019-09-24 23:00:00 20.1 3 Sudoeste 10 Oeste 0 -- -- 63
2019-09-24 22:00:00 20.9 4 Sudoeste 21 Oeste 0 -- -- 60
2019-09-24 21:00:00 22.2 8 Oeste 15 Oeste 0 -- -- 55
2019-09-24 20:00:00 24.2 7 Oeste 26 Sudoeste 0 -- -- 45
2019-09-24 19:00:00 26.4 12 Oeste 30 Sudoeste 0 -- -- 37
2019-09-24 18:00:00 27.9 16 Sudoeste 34 Oeste 0 -- -- 34
2019-09-24 17:00:00 28.1 12 Oeste 31 Sudoeste 0 -- -- 33
2019-09-24 16:00:00 27.5 8 Noroeste 27 Noroeste 0 -- -- 31
2019-09-24 15:00:00 26.2 10 Oeste 28 Oeste 0 -- -- 35
2019-09-24 14:00:00 25.4 11 Oeste 26 Oeste 0 -- -- 35
2019-09-24 13:00:00 24.7 6 Oeste 17 Oeste 0 -- -- 36
2019-09-24 12:00:00 22.5 6 Oeste 15 Oeste 0 -- -- 41
2019-09-24 11:00:00 20.1 8 Oeste 22 Oeste 0 -- -- 47
2019-09-24 10:00:00 15.7 3 Oeste 6 Oeste 0 -- -- 62
2019-09-24 09:00:00 13.4 0 Calma 10 Sudoeste 0 -- -- 68
2019-09-24 08:00:00 13.6 2 Sudoeste 16 Sur 0 -- -- 68
2019-09-24 07:00:00 13.9 6 Sudoeste 15 Sudoeste 0 -- -- 68
2019-09-24 06:00:00 14.8 3 Oeste 11 Oeste 0 -- -- 63
2019-09-24 05:00:00 16.7 9 Sudoeste 18 Sur 0 -- -- 55
2019-09-24 04:00:00 15.7 0 Calma 8 Este 0 -- -- 60
2019-09-24 03:00:00 15.6 0 Calma 16 Sudoeste 0 -- -- 61
2019-09-24 02:00:00 14.2 3 Nordeste 6 Nordeste 0 -- -- 64
2019-09-24 01:00:00 16.2 3 Nordeste 18 Sur 0 -- -- 58
2019-09-24 00:00:00 15 3 Este 9 Nordeste 0 -- -- 61
2019-09-23 23:00:00 15.1 3 Este 8 Este 0 -- -- 59
2019-09-23 22:00:00 16.2 3 Este 9 Sudeste 0 -- -- 55
2019-09-23 21:00:00 18.5 3 Nordeste 6 Nordeste 0 -- -- 50
2019-09-23 20:00:00 21.5 0 Calma 9 Sudoeste 0 -- -- 43
2019-09-23 19:00:00 22.7 5 Oeste 15 Oeste 0 -- -- 40
2019-09-23 18:00:00 23.5 6 Norte 20 Noroeste 0 -- -- 39
2019-09-23 17:00:00 23.7 4 Noroeste 22 Sudoeste 0 -- -- 35
2019-09-23 16:00:00 23.7 9 Oeste 22 Sudoeste 0 -- -- 34
2019-09-23 15:00:00 22.9 7 Oeste 21 Sudoeste 0 -- -- 36
2019-09-23 14:00:00 22.5 4 Noroeste 15 Oeste 0 -- -- 37
2019-09-23 13:00:00 20.7 4 Sudoeste 13 Noroeste 0 -- -- 43
2019-09-23 12:00:00 19.2 3 Oeste 9 Oeste 0 -- -- 47
2019-09-23 11:00:00 16.3 3 Oeste 9 Noroeste 0 -- -- 57
2019-09-23 10:00:00 12.8 0 Calma 3 Sudeste 0 -- -- 70
2019-09-23 09:00:00 8.4 0 Calma 5 Nordeste 0 -- -- 81
2019-09-23 08:00:00 7.2 2 Este 6 Nordeste 0 -- -- 82
2019-09-23 07:00:00 7.4 0 Calma 5 Nordeste 0 -- -- 81
2019-09-23 06:00:00 7.8 0 Calma 4 Nordeste 0 -- -- 80
2019-09-23 05:00:00 8.5 0 Calma 6 Nordeste 0 -- -- 78
2019-09-23 04:00:00 9.1 0 Calma 5 Nordeste 0 -- -- 74
2019-09-23 03:00:00 9.7 0 Calma 9 Nordeste 0 -- -- 71
2019-09-23 02:00:00 10.8 3 Nordeste 6 Nordeste 0 -- -- 68
2019-09-23 01:00:00 12.5 3 Nordeste 6 Nordeste 0 -- -- 64
2019-09-23 00:00:00 14.5 0 Calma 4 Este 0 -- -- 59
2019-09-22 23:00:00 14.9 0 Calma 8 Nordeste 0 -- -- 57
2019-09-22 22:00:00 15.2 3 Este 5 Nordeste 0 -- -- 56
2019-09-22 21:00:00 17.6 0 Calma 12 Oeste 0 -- -- 50
2019-09-22 20:00:00 19.7 7 Oeste 21 Sudoeste 0 -- -- 44
2019-09-22 19:00:00 21.1 10 Oeste 25 Sudoeste 0 -- -- 44
2019-09-22 18:00:00 21.3 10 Noroeste 29 Oeste 0 -- -- 47
2019-09-22 17:00:00 21.1 9 Oeste 27 Oeste 0 -- -- 52
2019-09-22 16:00:00 20 9 Oeste 22 Sudoeste 0 -- -- 56
2019-09-22 15:00:00 17.8 12 Sudoeste 28 Sudoeste 0 -- -- 64
2019-09-22 14:00:00 18.5 10 Oeste 33 Sudoeste 0 -- -- 62
2019-09-22 13:00:00 17.2 13 Oeste 31 Oeste 0 -- -- 70
2019-09-22 12:00:00 16 10 Oeste 32 Noroeste 0 -- -- 75
2019-09-22 11:00:00 20 15 Oeste 35 Sudoeste 0 -- -- 65
2019-09-22 10:00:00 19.4 10 Oeste 23 Sudoeste 0 -- -- 64
2019-09-22 09:00:00 18.4 8 Oeste 17 Oeste 0 -- -- 67
2019-09-22 08:00:00 18.2 3 Sudeste 14 Sudeste 0 -- -- 67
2019-09-22 07:00:00 18.4 4 Sudoeste 33 Oeste 0 -- -- 67
2019-09-22 06:00:00 18.9 14 Oeste 24 Sudoeste 0 -- -- 63
2019-09-22 05:00:00 19.3 8 Sudoeste 22 Sudoeste 0 -- -- 62
2019-09-22 04:00:00 19.2 8 Oeste 17 Oeste 0 -- -- 64
2019-09-22 03:00:00 19.2 4 Oeste 19 Sudoeste 0 -- -- 66
2019-09-22 02:00:00 19.6 4 Sur 14 Sudeste 0 -- -- 63
2019-09-22 01:00:00 20.2 4 Norte 15 Este 0 -- -- 60
2019-09-22 00:00:00 20.3 3 Sudoeste 9 Oeste 0 -- -- 57
2019-09-21 23:00:00 20.9 5 Oeste 10 Oeste 0 -- -- 55
2019-09-21 22:00:00 21.3 6 Oeste 18 Sudoeste 0 -- -- 54
2019-09-21 21:00:00 22.1 9 Sudoeste 18 Sudoeste 0 -- -- 50
2019-09-21 20:00:00 22.5 12 Oeste 21 Oeste 0 -- -- 46
2019-09-21 19:00:00 23.5 10 Oeste 30 Sudoeste 0 -- -- 44
2019-09-21 18:00:00 24.2 13 Oeste 30 Oeste 0 -- -- 41
2019-09-21 17:00:00 24.6 9 Oeste 35 Sudoeste 0 -- -- 41
2019-09-21 16:00:00 25 12 Oeste 31 Oeste 0 -- -- 40
2019-09-21 15:00:00 24.1 11 Oeste 27 Sudoeste 0 -- -- 42
2019-09-21 14:00:00 23.7 11 Oeste 29 Oeste 0 -- -- 43
2019-09-21 13:00:00 23.1 15 Oeste 29 Sudoeste 0 -- -- 44
2019-09-21 12:00:00 22.5 5 Sur 17 Noroeste 0 -- -- 52
2019-09-21 11:00:00 20.8 5 Sudoeste 15 Sur 0 -- -- 58
2019-09-21 10:00:00 18.4 5 Sudoeste 13 Este 0 -- -- 67
2019-09-21 09:00:00 16.5 3 Nordeste 13 Noroeste 0 -- -- 74
2019-09-21 08:00:00 16.3 4 Norte 14 Sudeste 0 -- -- 77
2019-09-21 07:00:00 16.3 5 Este 15 Sudeste 0 -- -- 77
2019-09-21 06:00:00 16.4 3 Noroeste 20 Sudeste 0 -- -- 75
2019-09-21 05:00:00 16.4 4 Sudeste 17 Sur 0 -- -- 74
2019-09-21 04:00:00 16.8 4 Nordeste 16 Sudeste 0 -- -- 74
2019-09-21 03:00:00 18.2 5 Este 15 Este 0 -- -- 67
2019-09-21 02:00:00 19.2 5 Este 15 Sudeste 0 -- -- 69
2019-09-21 01:00:00 19.7 3 Este 9 Este 0 -- -- 67
2019-09-21 00:00:00 19.7 4 Sudeste 14 Sudeste 0 -- -- 67
2019-09-20 23:00:00 20.2 4 Sudeste 19 Sur 0 -- -- 66
2019-09-20 22:00:00 20.9 3 Nordeste 18 Sur 0 -- -- 61
2019-09-20 21:00:00 21.5 3 Sudeste 23 Sudeste 0 -- -- 58
2019-09-20 20:00:00 22.6 5 Este 25 Sur 0 -- -- 56
2019-09-20 19:00:00 23.8 8 Sudeste 33 Sudeste 0 -- -- 52
2019-09-20 18:00:00 25.9 8 Oeste 25 Oeste 0 -- -- 44
2019-09-20 17:00:00 26.8 10 Sur 24 Sur 0 -- -- 38
2019-09-20 16:00:00 26.7 8 Sudeste 23 Sudeste 0 -- -- 41
2019-09-20 15:00:00 26.2 6 Sudeste 20 Sudeste 0 -- -- 42
2019-09-20 14:00:00 24.9 7 Sudeste 24 Sur 0 -- -- 48
2019-09-20 13:00:00 23.7 7 Sudeste 19 Sur 0 -- -- 51
2019-09-20 12:00:00 22.4 5 Sudeste 20 Sudeste 0 -- -- 56
2019-09-20 11:00:00 20.8 5 Sur 14 Sudeste 0 -- -- 66
2019-09-20 10:00:00 18.6 2 Nordeste 10 Nordeste 0 -- -- 75
2019-09-20 09:00:00 15.5 2 Nordeste 9 Nordeste 0 -- -- 88
2019-09-20 08:00:00 13.7 0 Calma 7 Nordeste 0 -- -- 91
2019-09-20 07:00:00 13.6 3 Este 5 Este 0 -- -- 90
2019-09-20 06:00:00 14 2 Este 6 Sudeste 0 -- -- 89
2019-09-20 05:00:00 14.6 0 Calma 7 Este 0 -- -- 87
2019-09-20 04:00:00 15.4 3 Este 8 Noroeste 0 -- -- 86
2019-09-20 03:00:00 16 2 Este 12 Sudeste 0 -- -- 84
2019-09-20 02:00:00 17 2 Este 6 Noroeste 0 -- -- 80
2019-09-20 01:00:00 18.1 3 Oeste 11 Sudeste 0 -- -- 76
2019-09-20 00:00:00 18.4 3 Norte 13 Sur 0 -- -- 77
2019-09-19 23:00:00 18.3 5 Noroeste 21 Sudeste 0.4 -- -- 77
2019-09-19 22:00:00 20.4 3 Nordeste 10 Noroeste 0 -- -- 62
2019-09-19 21:00:00 20.7 3 Oeste 23 Sudeste 0 -- -- 57
2019-09-19 20:00:00 22.2 9 Este 24 Este 0 -- -- 54
2019-09-19 19:00:00 25 8 Nordeste 22 Nordeste 0 -- -- 47
2019-09-19 18:00:00 25.4 7 Nordeste 24 Este 0 -- -- 44
2019-09-19 17:00:00 27.2 6 Este 20 Nordeste 0 -- -- 41
2019-09-19 16:00:00 25.5 10 Nordeste 21 Nordeste 0 -- -- 44
2019-09-19 15:00:00 27.5 5 Sudeste 17 Este 0 -- -- 36
2019-09-19 14:00:00 26.5 5 Nordeste 17 Este 0 -- -- 39
2019-09-19 13:00:00 25.4 2 Oeste 10 Sudeste 0 -- -- 43
2019-09-19 12:00:00 22.8 3 Nordeste 13 Sudoeste 0 -- -- 52
2019-09-19 11:00:00 19.1 3 Oeste 9 Oeste 0 -- -- 64
2019-09-19 10:00:00 16.1 2 Oeste 5 Oeste 0 -- -- 74
2019-09-19 09:00:00 13 0 Calma 4 Sudeste 0 -- -- 85
2019-09-19 08:00:00 11.2 0 Calma 6 Nordeste 0 -- -- 88
2019-09-19 07:00:00 11.7 0 Calma 4 Nordeste 0 -- -- 85
2019-09-19 06:00:00 12.2 0 Calma 5 Este 0 -- -- 84
2019-09-19 05:00:00 12.8 0 Calma 6 Nordeste 0 -- -- 81
2019-09-19 04:00:00 13.2 2 Este 4 Nordeste 0 -- -- 79
2019-09-19 03:00:00 13.9 0 Calma 6 Este 0 -- -- 76
2019-09-19 02:00:00 15.1 2 Este 5 Este 0 -- -- 72
2019-09-19 01:00:00 16.2 3 Oeste 6 Oeste 0 -- -- 68
2019-09-19 00:00:00 16.1 0 Calma 6 Nordeste 0 -- -- 64
2019-09-18 23:00:00 17.1 4 Nordeste 6 Norte 0 -- -- 59
2019-09-18 22:00:00 19.3 2 Nordeste 8 Sudeste 0 -- -- 54
2019-09-18 21:00:00 21.6 4 Noroeste 13 Noroeste 0 -- -- 47
2019-09-18 20:00:00 23.5 5 Noroeste 18 Noroeste 0 -- -- 47
2019-09-18 19:00:00 26 7 Norte 20 Noroeste 0 -- -- 37
2019-09-18 18:00:00 26.2 4 Noroeste 17 Sudoeste 0 -- -- 37
2019-09-18 17:00:00 25.5 10 Oeste 21 Nordeste 0 -- -- 38
2019-09-18 16:00:00 25.4 5 Norte 20 Noroeste 0 -- -- 37
2019-09-18 15:00:00 22.1 6 Oeste 14 Oeste 0 -- -- 56
2019-09-18 14:00:00 21.5 10 Oeste 18 Oeste 0 -- -- 58
2019-09-18 13:00:00 21.4 5 Oeste 9 Oeste 0 -- -- 57
2019-09-18 12:00:00 19.7 3 Oeste 12 Sudoeste 0 -- -- 64
2019-09-18 11:00:00 19 2 Noroeste 8 Nordeste 0 -- -- 68
2019-09-18 10:00:00 15.7 2 Sudeste 5 Nordeste 0 -- -- 81
2019-09-18 09:00:00 12.3 2 Este 6 Nordeste 0 -- -- 89
2019-09-18 08:00:00 11.4 2 Nordeste 6 Nordeste 0 -- -- 91
2019-09-18 07:00:00 11.5 0 Calma 9 Nordeste 0 -- -- 91
2019-09-18 06:00:00 11.8 0 Calma 6 Nordeste 0 -- -- 90
2019-09-18 05:00:00 12.7 0 Calma 6 Sudeste 0 -- -- 90
2019-09-18 04:00:00 13.8 0 Calma 6 Norte 0 -- -- 88
2019-09-18 03:00:00 14.7 2 Este 9 Nordeste 0 -- -- 86
2019-09-18 02:00:00 16 4 Nordeste 16 Sur 0.2 -- -- 83
2019-09-18 01:00:00 16.9 7 Sudeste 16 Sudeste 0.4 -- -- 78
2019-09-18 00:00:00 17.6 5 Oeste 24 Sudeste 0.6 -- -- 74
2019-09-17 23:00:00 18.3 8 Este 41 Sudoeste 0 -- -- 68
2019-09-17 22:00:00 21.3 24 Oeste 50 Sudoeste 0 -- -- 49
2019-09-17 21:00:00 24.3 2 Este 15 Este 0 -- -- 43